createdAt,value
2022-08-02T00:00:11.620Z,15.69
2022-08-02T00:02:37.942Z,15.72
2022-08-02T00:05:04.764Z,15.72
2022-08-02T00:07:31.096Z,15.75
2022-08-02T00:09:57.433Z,15.80
2022-08-02T00:12:23.780Z,15.84
2022-08-02T00:14:50.120Z,15.89
2022-08-02T00:17:17.829Z,15.93
2022-08-02T00:19:44.481Z,15.99
2022-08-02T00:22:11.161Z,16.02
2022-08-02T00:24:37.828Z,16.08
2022-08-02T00:27:05.067Z,16.07
2022-08-02T00:29:36.716Z,16.03
2022-08-02T00:32:18.296Z,15.96
2022-08-02T00:34:44.632Z,15.88
2022-08-02T00:37:10.974Z,15.76
2022-08-02T00:39:37.297Z,15.73
2022-08-02T00:42:04.409Z,15.76
2022-08-02T00:44:30.740Z,15.75
2022-08-02T00:46:57.100Z,15.75
2022-08-02T00:49:24.881Z,15.78
2022-08-02T00:51:51.310Z,15.80
2022-08-02T00:54:19.296Z,15.85
2022-08-02T00:56:50.068Z,15.91
2022-08-02T00:59:17.821Z,15.94
2022-08-02T01:01:56.028Z,15.95
2022-08-02T01:04:30.635Z,15.95
2022-08-02T01:06:58.582Z,15.95
2022-08-02T01:09:24.931Z,15.95
2022-08-02T01:11:51.270Z,15.91
2022-08-02T01:14:17.895Z,15.95
2022-08-02T01:16:46.410Z,15.92
2022-08-02T01:19:29.667Z,15.88
2022-08-02T01:22:05.955Z,15.88
2022-08-02T01:24:54.928Z,15.82
2022-08-02T01:27:29.543Z,15.84
2022-08-02T01:29:59.354Z,15.86
2022-08-02T01:32:27.838Z,15.83
2022-08-02T01:34:56.268Z,15.83
2022-08-02T01:37:24.340Z,15.83
2022-08-02T01:39:54.370Z,15.81
2022-08-02T01:42:21.451Z,15.81
2022-08-02T01:44:49.580Z,15.81
2022-08-02T01:47:18.559Z,15.83
2022-08-02T01:49:46.332Z,15.83
2022-08-02T01:52:13.980Z,15.84
2022-08-02T01:54:42.116Z,15.84
2022-08-02T01:57:09.615Z,15.79
2022-08-02T01:59:36.546Z,15.73
2022-08-02T02:02:07.324Z,15.67
2022-08-02T02:04:36.592Z,15.57
2022-08-02T02:07:03.648Z,15.50
2022-08-02T02:09:31.235Z,15.45
2022-08-02T02:12:05.310Z,15.38
2022-08-02T02:14:40.695Z,15.29
2022-08-02T02:17:08.015Z,15.29
2022-08-02T02:19:37.758Z,15.29
2022-08-02T02:22:04.164Z,15.27
2022-08-02T02:24:30.995Z,15.24
2022-08-02T02:26:59.505Z,15.19
2022-08-02T02:29:28.088Z,15.22
2022-08-02T02:31:55.140Z,15.20
2022-08-02T02:34:25.315Z,15.21
2022-08-02T02:36:53.618Z,15.19
2022-08-02T02:39:21.293Z,15.18
2022-08-02T02:41:47.739Z,15.18
2022-08-02T02:44:16.250Z,15.18
2022-08-02T02:46:43.891Z,15.17
2022-08-02T02:49:11.135Z,15.15
2022-08-02T02:51:39.310Z,15.15
2022-08-02T02:54:30.158Z,15.15
2022-08-02T02:56:55.422Z,15.13
2022-08-02T02:59:21.818Z,15.12
2022-08-02T03:01:56.809Z,15.12
2022-08-02T03:04:24.981Z,15.06
2022-08-02T03:06:51.432Z,14.99
2022-08-02T03:09:19.114Z,14.94
2022-08-02T03:11:45.881Z,14.94
2022-08-02T03:14:12.883Z,14.96
2022-08-02T03:16:42.556Z,14.96
2022-08-02T03:19:08.887Z,14.96
2022-08-02T03:21:35.202Z,14.96
2022-08-02T03:24:01.528Z,14.93
2022-08-02T03:26:29.244Z,14.87
2022-08-02T03:28:55.585Z,14.84
2022-08-02T03:31:21.979Z,14.84
2022-08-02T03:33:48.903Z,14.81
2022-08-02T03:36:16.482Z,14.81
2022-08-02T03:38:43.748Z,14.80
2022-08-02T03:41:10.975Z,14.79
2022-08-02T03:43:39.263Z,14.77
2022-08-02T03:46:07.562Z,14.71
2022-08-02T03:48:35.337Z,14.69
2022-08-02T03:51:01.860Z,14.67
2022-08-02T03:53:28.453Z,14.69
2022-08-02T03:55:56.045Z,14.70
2022-08-02T03:58:23.618Z,14.73
2022-08-02T04:00:52.575Z,14.75
2022-08-02T04:03:20.173Z,14.75
2022-08-02T04:06:03.557Z,14.71
2022-08-02T04:08:35.165Z,14.72
2022-08-02T04:11:02.992Z,14.73
2022-08-02T04:13:35.978Z,14.72
2022-08-02T04:16:08.956Z,14.74
2022-08-02T04:18:39.147Z,14.76
2022-08-02T04:21:06.418Z,14.78
2022-08-02T04:23:34.535Z,14.81
2022-08-02T04:26:03.565Z,14.86
2022-08-02T04:28:35.700Z,14.90
2022-08-02T04:31:02.393Z,14.93
2022-08-02T04:33:30.975Z,14.98
2022-08-02T04:35:59.709Z,14.99
2022-08-02T04:38:26.407Z,15.01
2022-08-02T04:40:54.187Z,15.03
2022-08-02T04:43:20.987Z,15.05
2022-08-02T04:45:48.241Z,15.08
2022-08-02T04:48:14.564Z,15.09
2022-08-02T04:50:42.244Z,15.10
2022-08-02T04:53:08.579Z,15.09
2022-08-02T04:55:34.967Z,15.09
2022-08-02T04:58:04.114Z,15.11
2022-08-02T05:00:36.185Z,15.15
2022-08-02T05:03:02.534Z,15.17
2022-08-02T05:05:28.880Z,15.18
2022-08-02T05:07:56.953Z,15.21
2022-08-02T05:10:23.427Z,15.26
2022-08-02T05:12:49.790Z,15.30
2022-08-02T05:15:16.125Z,15.35
2022-08-02T05:17:47.431Z,15.37
2022-08-02T05:20:15.423Z,15.42
2022-08-02T05:22:41.882Z,15.45
2022-08-02T05:25:10.312Z,15.50
2022-08-02T05:27:36.627Z,15.56
2022-08-02T05:30:03.628Z,15.61
2022-08-02T05:32:29.947Z,15.70
2022-08-02T05:34:56.287Z,15.73
2022-08-02T05:37:22.633Z,15.78
2022-08-02T05:39:55.928Z,15.83
2022-08-02T05:42:24.135Z,15.92
2022-08-02T05:44:50.570Z,15.99
2022-08-02T05:47:17.087Z,16.06
2022-08-02T05:49:43.415Z,16.13
2022-08-02T05:52:14.544Z,16.20
2022-08-02T05:54:47.034Z,16.29
2022-08-02T05:57:16.940Z,16.37
2022-08-02T05:59:50.258Z,16.46
2022-08-02T06:02:27.379Z,16.57
2022-08-02T06:04:59.402Z,16.65
2022-08-02T06:07:25.759Z,16.77
2022-08-02T06:09:52.498Z,16.85
2022-08-02T06:12:19.563Z,16.96
2022-08-02T06:14:51.399Z,17.04
2022-08-02T06:17:20.958Z,17.17
2022-08-02T06:19:52.390Z,17.28
2022-08-02T06:22:34.575Z,17.40
2022-08-02T06:25:03.479Z,17.54
2022-08-02T06:27:30.129Z,17.71
2022-08-02T06:29:58.038Z,17.90
2022-08-02T06:32:26.519Z,18.08
2022-08-02T06:34:52.839Z,18.23
2022-08-02T06:37:24.270Z,18.32
2022-08-02T06:39:54.530Z,18.38
2022-08-02T06:42:26.905Z,18.41
2022-08-02T06:44:57.235Z,18.44
2022-08-02T06:47:25.900Z,18.48
2022-08-02T06:49:54.316Z,18.51
2022-08-02T06:52:27.132Z,18.57
2022-08-02T06:54:55.076Z,18.65
2022-08-02T06:57:21.386Z,18.69
2022-08-02T06:59:47.704Z,18.75
2022-08-02T07:02:14.325Z,18.80
2022-08-02T07:04:42.196Z,18.90
2022-08-02T07:07:08.547Z,18.99
2022-08-02T07:09:34.919Z,19.08
2022-08-02T07:12:01.241Z,19.18
2022-08-02T07:14:27.599Z,19.24
2022-08-02T07:16:53.931Z,19.32
2022-08-02T07:19:20.268Z,19.43
2022-08-02T07:21:56.722Z,19.53
2022-08-02T07:24:26.740Z,19.62
2022-08-02T07:27:10.501Z,19.70
2022-08-02T07:29:46.548Z,19.81
2022-08-02T07:32:13.968Z,19.89
2022-08-02T07:34:40.639Z,19.97
2022-08-02T07:37:23.503Z,20.05
2022-08-02T07:39:56.692Z,20.13
2022-08-02T07:42:23.462Z,20.18
2022-08-02T07:44:49.962Z,20.24
2022-08-02T07:47:16.332Z,20.27
2022-08-02T07:49:42.664Z,20.31
2022-08-02T07:52:10.720Z,20.33
2022-08-02T07:54:37.195Z,20.33
2022-08-02T07:57:03.723Z,20.36
2022-08-02T07:59:30.148Z,20.41
2022-08-02T08:01:56.588Z,20.50
2022-08-02T08:04:23.063Z,20.60
2022-08-02T08:06:49.396Z,20.69
2022-08-02T08:09:17.179Z,20.80
2022-08-02T08:11:43.536Z,20.92
2022-08-02T08:14:14.670Z,21.02
2022-08-02T08:16:42.988Z,21.13
2022-08-02T08:19:09.487Z,21.25
2022-08-02T08:21:35.806Z,21.36
2022-08-02T08:24:02.158Z,21.48
2022-08-02T08:26:29.859Z,21.58
2022-08-02T08:28:56.208Z,21.67
2022-08-02T08:31:22.540Z,21.76
2022-08-02T08:33:48.898Z,21.79
2022-08-02T08:36:15.246Z,21.79
2022-08-02T08:38:41.569Z,21.82
2022-08-02T08:41:08.419Z,21.88
2022-08-02T08:43:38.248Z,21.95
2022-08-02T08:46:04.887Z,22.04
2022-08-02T08:48:32.938Z,22.18
2022-08-02T08:51:01.958Z,22.31
2022-08-02T08:53:36.876Z,22.45
2022-08-02T08:56:04.211Z,22.63
2022-08-02T08:58:30.661Z,22.72
2022-08-02T09:00:58.784Z,22.81
2022-08-02T09:03:25.253Z,22.91
2022-08-02T09:05:51.622Z,23.00
2022-08-02T09:08:17.948Z,23.07
2022-08-02T09:10:44.901Z,23.15
2022-08-02T09:13:38.390Z,23.24
2022-08-02T09:16:13.028Z,23.27
2022-08-02T09:18:41.457Z,23.27
2022-08-02T09:21:08.459Z,23.29
2022-08-02T09:23:36.124Z,23.24
2022-08-02T09:26:07.413Z,23.23
2022-08-02T09:28:34.935Z,23.29
2022-08-02T09:31:09.219Z,23.30
2022-08-02T09:33:36.215Z,23.28
2022-08-02T09:36:06.454Z,23.34
2022-08-02T09:38:35.153Z,23.45
2022-08-02T09:41:01.735Z,23.56
2022-08-02T09:43:37.895Z,23.71
2022-08-02T09:46:27.084Z,23.86
2022-08-02T09:48:54.659Z,24.01
2022-08-02T09:51:22.368Z,24.16
2022-08-02T09:53:49.948Z,24.30
2022-08-02T09:56:30.245Z,24.33
2022-08-02T09:59:06.197Z,24.42
2022-08-02T10:01:37.357Z,24.58
2022-08-02T10:04:04.956Z,24.73
2022-08-02T10:06:31.628Z,24.83
2022-08-02T10:08:58.481Z,24.89
2022-08-02T10:11:25.954Z,24.91
2022-08-02T10:13:53.020Z,24.96
2022-08-02T10:16:20.527Z,25.06
2022-08-02T10:18:48.734Z,25.12
2022-08-02T10:21:19.423Z,25.13
2022-08-02T10:23:46.206Z,25.19
2022-08-02T10:26:14.541Z,25.17
2022-08-02T10:28:42.309Z,25.18
2022-08-02T10:31:10.136Z,25.18
2022-08-02T10:33:38.098Z,25.35
2022-08-02T10:36:07.812Z,25.50
2022-08-02T10:38:35.351Z,25.66
2022-08-02T10:41:01.726Z,25.76
2022-08-02T10:43:41.204Z,25.86
2022-08-02T10:46:20.449Z,25.95
2022-08-02T10:49:01.431Z,26.03
2022-08-02T10:51:52.696Z,26.14
2022-08-02T10:54:19.891Z,26.23
2022-08-02T10:56:46.853Z,26.28
2022-08-02T10:59:27.200Z,26.27
2022-08-02T11:01:53.757Z,26.26
2022-08-02T11:04:28.466Z,26.17
2022-08-02T11:07:09.410Z,26.18
2022-08-02T11:09:35.750Z,26.20
2022-08-02T11:12:03.592Z,26.18
2022-08-02T11:14:30.437Z,26.16
2022-08-02T11:17:07.462Z,26.13
2022-08-02T11:19:33.975Z,26.14
2022-08-02T11:22:00.764Z,26.18
2022-08-02T11:24:29.508Z,26.30
2022-08-02T11:26:56.216Z,26.37
2022-08-02T11:29:31.222Z,26.55
2022-08-02T11:31:57.902Z,26.74
2022-08-02T11:34:37.050Z,26.85
2022-08-02T11:37:04.619Z,26.94
2022-08-02T11:39:32.607Z,26.96
2022-08-02T11:42:00.075Z,26.96
2022-08-02T11:44:27.306Z,27.02
2022-08-02T11:46:54.504Z,27.07
2022-08-02T11:49:20.948Z,27.07
2022-08-02T11:51:54.452Z,27.14
2022-08-02T11:54:25.180Z,27.29
2022-08-02T11:56:52.926Z,27.35
2022-08-02T11:59:19.313Z,27.40
2022-08-02T12:01:46.547Z,27.44
2022-08-02T12:04:16.012Z,27.45
2022-08-02T12:06:42.522Z,27.51
2022-08-02T12:09:17.940Z,27.60
2022-08-02T12:11:47.891Z,27.74
2022-08-02T12:14:15.566Z,27.91
2022-08-02T12:16:41.950Z,28.02
2022-08-02T12:19:08.368Z,28.09
2022-08-02T12:21:36.364Z,28.23
2022-08-02T12:24:02.900Z,28.38
2022-08-02T12:26:29.375Z,28.40
2022-08-02T12:28:56.464Z,28.36
2022-08-02T12:31:38.805Z,28.24
2022-08-02T12:34:32.086Z,28.34
2022-08-02T12:37:03.290Z,28.48
2022-08-02T12:39:37.208Z,28.48
2022-08-02T12:42:04.138Z,28.47
2022-08-02T12:44:30.528Z,28.46
2022-08-02T12:47:03.941Z,28.46
2022-08-02T12:49:30.917Z,28.51
2022-08-02T12:52:02.232Z,28.58
2022-08-02T12:54:39.118Z,28.58
2022-08-02T12:57:10.844Z,28.49
2022-08-02T12:59:39.212Z,28.43
2022-08-02T13:02:09.603Z,28.44
2022-08-02T13:04:36.314Z,28.51
2022-08-02T13:07:03.652Z,28.55
2022-08-02T13:09:35.043Z,28.63
2022-08-02T13:12:01.377Z,28.53
2022-08-02T13:14:27.747Z,28.41
2022-08-02T13:16:54.109Z,28.26
2022-08-02T13:19:21.813Z,28.22
2022-08-02T13:22:01.325Z,28.12
2022-08-02T13:24:40.738Z,28.01
2022-08-02T13:27:15.816Z,27.94
2022-08-02T13:29:42.206Z,27.89
2022-08-02T13:32:08.551Z,27.81
2022-08-02T13:34:36.496Z,27.79
2022-08-02T13:37:03.297Z,27.82
2022-08-02T13:39:29.749Z,27.83
2022-08-02T13:41:56.093Z,27.84
2022-08-02T13:44:22.503Z,27.86
2022-08-02T13:46:48.969Z,27.89
2022-08-02T13:49:19.367Z,27.95
2022-08-02T13:51:48.358Z,28.00
2022-08-02T13:54:14.817Z,27.98
2022-08-02T13:56:41.296Z,27.97
2022-08-02T13:59:56.996Z,27.97
2022-08-02T14:01:54.168Z,27.98
2022-08-02T14:04:20.892Z,27.95
2022-08-02T14:06:48.656Z,27.97
2022-08-02T14:09:16.810Z,28.01
2022-08-02T14:11:43.733Z,27.93
2022-08-02T14:14:15.818Z,27.93
2022-08-02T14:16:44.282Z,27.99
2022-08-02T14:19:15.548Z,28.01
2022-08-02T14:21:46.717Z,27.99
2022-08-02T14:24:15.457Z,27.99
2022-08-02T14:26:41.800Z,27.98
2022-08-02T14:29:08.281Z,28.01
2022-08-02T14:31:34.663Z,28.01
2022-08-02T14:34:01.014Z,28.00
2022-08-02T14:36:28.167Z,27.96
2022-08-02T14:38:54.691Z,27.94
2022-08-02T14:41:22.413Z,27.89
2022-08-02T14:43:48.744Z,27.96
2022-08-02T14:46:15.371Z,28.01
2022-08-02T14:48:41.726Z,27.99
2022-08-02T14:51:08.103Z,27.98
2022-08-02T14:53:37.951Z,28.01
2022-08-02T14:56:16.122Z,28.01
2022-08-02T14:58:43.820Z,28.02
2022-08-02T15:01:10.210Z,28.02
2022-08-02T15:03:43.190Z,28.02
2022-08-02T15:06:10.233Z,28.02
2022-08-02T15:08:36.610Z,28.01
2022-08-02T15:11:02.944Z,27.99
2022-08-02T15:13:29.299Z,27.98
2022-08-02T15:15:56.984Z,27.98
2022-08-02T15:18:23.334Z,28.01
2022-08-02T15:20:57.246Z,28.03
2022-08-02T15:23:24.490Z,27.99
2022-08-02T15:26:01.327Z,27.97
2022-08-02T15:28:27.667Z,27.94
2022-08-02T15:30:54.008Z,27.90
2022-08-02T15:33:21.737Z,27.86
2022-08-02T15:35:48.086Z,27.82
2022-08-02T15:38:14.407Z,27.82
2022-08-02T15:40:40.758Z,27.82
2022-08-02T15:43:07.254Z,27.86
2022-08-02T15:45:34.353Z,27.86
2022-08-02T15:48:00.941Z,27.90
2022-08-02T15:50:31.286Z,27.89
2022-08-02T15:52:57.643Z,27.88
2022-08-02T15:55:23.998Z,27.85
2022-08-02T15:57:50.340Z,27.83
2022-08-02T16:00:18.657Z,27.83
2022-08-02T16:02:45.361Z,27.81
2022-08-02T16:05:14.413Z,27.79
2022-08-02T16:07:42.168Z,27.79
2022-08-02T16:10:08.900Z,27.80
2022-08-02T16:12:35.241Z,27.81
2022-08-02T16:15:01.588Z,27.82
2022-08-02T16:17:53.945Z,27.80
2022-08-02T16:20:14.405Z,27.80
2022-08-02T16:22:42.081Z,27.78
2022-08-02T16:25:08.580Z,27.77
2022-08-02T16:28:05.908Z,27.76
2022-08-02T16:30:22.508Z,27.73
2022-08-02T16:32:48.838Z,27.75
2022-08-02T16:35:15.278Z,27.74
2022-08-02T16:37:52.160Z,27.75
2022-08-02T16:40:19.214Z,27.72
2022-08-02T16:42:50.784Z,27.67
2022-08-02T16:48:05.466Z,27.63
2022-08-02T16:50:32.271Z,27.62
2022-08-02T16:52:59.999Z,27.64
2022-08-02T16:55:33.541Z,27.71
2022-08-02T16:57:59.855Z,27.67
2022-08-02T17:00:26.232Z,27.64
2022-08-02T17:02:52.798Z,27.64
2022-08-02T17:05:19.145Z,27.66
2022-08-02T17:08:08.465Z,27.69
2022-08-02T17:10:35.841Z,27.77
2022-08-02T17:13:11.081Z,27.78
2022-08-02T17:16:16.987Z,27.80
2022-08-02T17:18:26.627Z,27.94
2022-08-02T17:20:53.177Z,28.07
2022-08-02T17:23:19.514Z,28.15
2022-08-02T17:25:52.445Z,28.07
2022-08-02T17:28:19.196Z,27.95
2022-08-02T17:30:45.530Z,27.85
2022-08-02T17:33:11.868Z,27.77
2022-08-02T17:35:43.447Z,27.70
2022-08-02T17:38:10.299Z,27.63
2022-08-02T17:40:36.819Z,27.57
2022-08-02T17:43:14.725Z,27.48
2022-08-02T17:45:59.848Z,27.41
2022-08-02T17:48:29.316Z,27.41
2022-08-02T17:51:03.477Z,27.41
2022-08-02T17:56:16.143Z,27.29
2022-08-02T17:58:51.922Z,27.23
2022-08-02T18:01:24.251Z,27.17
2022-08-02T18:03:51.015Z,27.16
2022-08-02T18:06:21.056Z,27.12
2022-08-02T18:08:52.522Z,27.18
2022-08-02T18:11:18.872Z,27.46
2022-08-02T18:14:06.569Z,27.81
2022-08-02T18:16:33.037Z,27.78
2022-08-02T18:19:02.952Z,27.71
2022-08-02T18:21:31.649Z,28.14
2022-08-02T18:23:59.168Z,28.59
2022-08-02T18:26:27.233Z,28.90
2022-08-02T18:28:53.700Z,29.02
2022-08-02T18:31:22.788Z,28.81
2022-08-02T18:33:55.814Z,28.40
2022-08-02T18:36:25.413Z,28.02
2022-08-02T18:38:52.042Z,27.73
2022-08-02T18:41:18.723Z,27.49
2022-08-02T18:43:47.880Z,27.29
2022-08-02T18:46:16.379Z,27.13
2022-08-02T18:48:46.433Z,26.96
2022-08-02T18:51:14.741Z,26.81
2022-08-02T18:53:42.877Z,26.68
2022-08-02T18:56:10.673Z,26.54
2022-08-02T18:58:46.892Z,26.41
2022-08-02T19:01:21.937Z,26.30
2022-08-02T19:04:01.316Z,26.14
2022-08-02T19:06:29.156Z,25.99
2022-08-02T19:09:05.837Z,25.87
2022-08-02T19:11:37.862Z,25.74
2022-08-02T19:14:04.478Z,25.62
2022-08-02T19:16:37.080Z,25.51
2022-08-02T19:19:05.960Z,25.40
2022-08-02T19:22:18.199Z,25.29
2022-08-02T19:24:18.972Z,25.17
2022-08-02T19:26:52.079Z,25.06
2022-08-02T19:29:19.518Z,24.96
2022-08-02T19:32:05.900Z,24.85
2022-08-02T19:34:53.560Z,24.73
2022-08-02T19:37:19.904Z,24.63
2022-08-02T19:39:46.247Z,24.55
2022-08-02T19:42:14.557Z,24.46
2022-08-02T19:44:45.065Z,24.40
2022-08-02T19:47:12.209Z,24.34
2022-08-02T19:49:40.347Z,24.26
2022-08-02T19:52:21.194Z,24.21
2022-08-02T19:54:55.401Z,24.16
2022-08-02T19:57:23.309Z,24.10
2022-08-02T19:59:51.995Z,24.04
2022-08-02T20:02:19.038Z,23.98
2022-08-02T20:04:46.494Z,23.91
2022-08-02T20:07:24.230Z,23.84
2022-08-02T20:10:04.877Z,23.76
2022-08-02T20:12:36.852Z,23.69
2022-08-02T20:15:07.840Z,23.61
2022-08-02T20:17:47.205Z,23.54
2022-08-02T20:20:14.817Z,23.48
2022-08-02T20:22:42.537Z,23.41
2022-08-02T20:25:10.041Z,23.35
2022-08-02T20:27:51.012Z,23.31
2022-08-02T20:30:17.869Z,23.27
2022-08-02T20:32:52.751Z,23.27
2022-08-02T20:35:22.705Z,23.23
2022-08-02T20:37:59.381Z,23.19
2022-08-02T20:40:29.089Z,23.15
2022-08-02T20:42:55.415Z,23.11
2022-08-02T20:45:22.380Z,23.09
2022-08-02T20:47:49.749Z,23.04
2022-08-02T20:50:17.526Z,23.01
2022-08-02T20:52:44.568Z,22.95
2022-08-02T20:55:17.249Z,22.90
2022-08-02T20:58:00.537Z,22.85
2022-08-02T21:00:28.034Z,22.81
2022-08-02T21:02:54.389Z,22.76
2022-08-02T21:05:20.739Z,22.70
2022-08-02T21:08:07.195Z,22.63
2022-08-02T21:10:43.422Z,22.58
2022-08-02T21:13:18.609Z,22.52
2022-08-02T21:15:45.680Z,22.51
2022-08-02T21:18:14.375Z,22.46
2022-08-02T21:20:53.310Z,22.40
2022-08-02T21:23:20.056Z,22.37
2022-08-02T21:25:56.912Z,22.35
2022-08-02T21:28:24.064Z,22.51
2022-08-02T21:31:01.507Z,22.21
2022-08-02T21:33:29.264Z,22.03
2022-08-02T21:36:15.592Z,22.01
2022-08-02T21:38:42.009Z,22.00
2022-08-02T21:41:11.312Z,22.00
2022-08-02T21:43:39.094Z,21.96
2022-08-02T21:46:05.620Z,21.91
2022-08-02T21:48:32.012Z,21.89
2022-08-02T21:50:58.376Z,21.88
2022-08-02T21:53:42.160Z,21.87
2022-08-02T21:56:10.816Z,21.87
2022-08-02T21:58:37.148Z,21.86
2022-08-02T22:01:03.734Z,21.83
2022-08-02T22:03:30.250Z,21.77
2022-08-02T22:05:56.580Z,21.71
2022-08-02T22:08:22.914Z,21.67
2022-08-02T22:10:50.261Z,21.59
2022-08-02T22:13:19.151Z,21.58
2022-08-02T22:15:46.611Z,21.51
2022-08-02T22:18:14.353Z,21.45
2022-08-02T22:20:40.930Z,21.38
2022-08-02T22:23:12.973Z,21.33
2022-08-02T22:25:49.222Z,21.29
2022-08-02T22:31:04.847Z,21.20
2022-08-02T22:33:33.494Z,21.14
2022-08-02T22:36:00.346Z,21.11
2022-08-02T22:38:26.716Z,21.06
2022-08-02T22:40:53.152Z,21.02
2022-08-02T22:43:23.080Z,20.98
2022-08-02T22:45:49.888Z,20.93
2022-08-02T22:48:17.582Z,20.87
2022-08-02T22:50:43.996Z,20.84
2022-08-02T22:53:10.414Z,20.80
2022-08-02T22:55:41.610Z,20.75
2022-08-02T22:58:08.731Z,20.73
2022-08-02T22:58:34.617Z,27.65
2022-08-02T22:58:48.942Z,27.35
2022-08-02T22:59:12.384Z,21.25
2022-08-02T23:00:35.056Z,20.73
2022-08-02T23:03:01.378Z,20.69
2022-08-02T23:05:30.978Z,20.66
2022-08-02T23:07:57.546Z,20.67
2022-08-02T23:10:23.905Z,20.68
2022-08-02T23:12:50.303Z,20.70
2022-08-02T23:15:16.646Z,20.66
2022-08-02T23:17:43.161Z,20.60
2022-08-02T23:20:09.750Z,20.54
2022-08-02T23:22:37.663Z,20.48
2022-08-02T23:25:04.268Z,20.43
2022-08-02T23:27:31.034Z,20.36
2022-08-02T23:29:57.700Z,20.32
2022-08-02T23:32:25.744Z,20.28
2022-08-02T23:34:52.310Z,20.25
2022-08-02T23:37:18.668Z,20.24
2022-08-02T23:39:47.676Z,20.21
2022-08-02T23:42:14.352Z,20.16
2022-08-02T23:44:40.975Z,20.12
2022-08-02T23:47:07.348Z,20.10
2022-08-02T23:49:33.906Z,20.08
2022-08-02T23:52:01.967Z,20.04
2022-08-02T23:54:28.970Z,19.98
2022-08-02T23:56:56.764Z,19.96
2022-08-02T23:59:23.155Z,19.94
